Latest Weather Observations for Kuitpo

IDS60801

Issued at 12:31 pm CST Sunday 31 July 2016 (issued every 30 minutes, with the page automatically refreshed every 10 minutes)

About weather observations | Map of weather stations | Latest weather observations for SA | Other Formats
Station Details ID: 023887 Name: KUITPO FOREST RESERVE Lat: -35.17 Lon: 138.68 Height: 365.0 m
Data from the previous 72 hours. | See also: Recent months at Kuitpo
Date/Time
CST
Temp
°C
App
Temp
°C
Dew
Point
°C
Rel
Hum
%
Delta-T
°C
Wind Press
QNH
hPa
Press
MSL
hPa
Rain since
9am
mm
Dir  Spd
km/h
Gust
km/h
Spd
kts
Gust
kts
31/12:30pm 14.5 11.8 10.3 76 2.2 N 15 24 8 13 1012.8 1013.1 0.0
31/12:00pm 13.8 10.9 9.6 76 2.2 NNW 15 28 8 15 1013.7 1013.9 0.0
31/11:30am 13.7 10.7 9.4 75 2.2 N 15 20 8 11 1013.8 1014.0 0.0
31/11:00am 13.7 11.3 10.1 79 1.9 N 13 24 7 13 1014.3 1014.6 0.0
31/10:30am 12.6 9.6 9.2 80 1.7 NNW 15 20 8 11 1014.6 1014.9 0.0
31/10:00am 11.8 9.6 10.9 94 0.5 N 13 19 7 10 1014.8 1015.1 0.0
31/09:30am 11.3 9.6 11.3 100 0.0 N 11 17 6 9 1014.8 1015.1 0.0
31/09:00am 11.1 10.1 11.1 100 0.0 NNE 7 11 4 6 1015.0 1015.3 2.4
31/08:30am 9.8 8.5 9.8 100 0.0 N 7 11 4 6 1015.0 1015.3 2.4
31/08:00am 9.3 7.8 9.3 100 0.0 NE 7 9 4 5 1014.7 1015.0 2.4
31/07:30am 9.7 8.5 9.7 100 0.0 SSE 6 9 3 5 1014.3 1014.6 2.4
31/07:00am 9.9 9.9 9.9 100 0.0 CALM 0 0 0 0 1014.4 1014.7 2.4
31/06:30am 10.1 9.0 10.1 100 0.0 NW 6 7 3 4 1014.5 1014.8 2.4
31/06:00am 10.3 9.3 10.3 100 0.0 W 6 9 3 5 1014.3 1014.6 2.4
31/05:30am 10.5 9.4 10.5 100 0.0 W 7 11 4 6 1014.0 1014.3 2.4
31/05:00am 10.6 9.1 10.6 100 0.0 W 9 15 5 8 1013.9 1014.2 2.4
31/04:30am 10.7 9.2 10.7 100 0.0 W 9 15 5 8 1013.8 1014.0 2.4
31/04:00am 10.8 9.3 10.6 99 0.1 W 9 15 5 8 1013.8 1014.0 2.4
31/03:30am 10.9 8.7 10.7 99 0.1 W 13 17 7 9 1013.9 1014.2 2.4
31/03:00am 11.0 8.8 10.8 99 0.1 W 13 22 7 12 1014.0 1014.3 2.4
31/02:30am 11.1 8.9 10.9 99 0.1 WSW 13 20 7 11 1014.1 1014.4 2.4
31/02:00am 11.2 8.7 11.0 99 0.1 W 15 24 8 13 1014.0 1014.3 2.4
31/01:30am 11.2 7.9 10.9 98 0.2 WNW 19 30 10 16 1013.9 1014.2 2.4
31/01:00am 11.2 7.6 10.7 97 0.3 WNW 20 30 11 16 1014.1 1014.4 2.4
31/12:30am 11.1 7.6 10.3 95 0.4 WNW 19 32 10 17 1014.3 1014.6 2.4
31/12:00am 11.2 7.4 9.8 91 0.7 WNW 20 32 11 17 1014.4 1014.7 2.4
 
Date/Time
CST
Temp
°C
App
Temp
°C
Dew
Point
°C
Rel
Hum
%
Delta-T
°C
Wind Press
QNH
hPa
Press
MSL
hPa
Rain since
9am
mm
Dir  Spd
km/h
Gust
km/h
Spd
kts
Gust
kts
30/11:30pm 11.4 7.4 9.1 86 1.2 NW 20 32 11 17 1014.4 1014.7 2.4
30/11:00pm 11.6 7.5 8.8 83 1.4 NW 20 32 11 17 1014.5 1014.8 2.4
30/10:30pm 11.9 7.4 8.4 79 1.8 NW 22 35 12 19 1014.6 1014.9 2.4
30/10:00pm 11.9 7.8 7.8 76 2.0 NW 19 32 10 17 1014.5 1014.8 2.4
30/09:30pm 12.0 8.6 7.5 74 2.2 NW 15 24 8 13 1014.5 1014.8 2.4
30/09:00pm 12.0 7.9 7.7 75 2.1 NW 19 30 10 16 1014.1 1014.4 2.4
30/08:30pm 11.7 7.4 7.8 77 1.9 NW 20 30 11 16 1013.8 1014.0 2.4
30/08:00pm 11.1 7.5 8.3 83 1.4 NW 17 24 9 13 1013.5 1013.7 2.4
30/07:30pm 10.4 6.5 8.8 90 0.8 NW 19 28 10 15 1013.1 1013.4 2.4
30/07:00pm 10.2 6.8 9.3 94 0.5 NW 17 28 9 15 1013.4 1013.6 2.4
30/06:30pm 10.1 6.3 9.2 94 0.5 NNW 19 32 10 17 1013.5 1013.7 2.4
30/06:00pm 10.3 5.9 8.9 91 0.7 NW 22 39 12 21 1013.8 1014.0 1.6
30/05:30pm 10.6 5.7 8.5 87 1.1 NW 24 35 13 19 1013.6 1013.8 0.4
30/05:00pm 11.8 6.2 7.3 74 2.2 NW 26 41 14 22 1012.9 1013.2 0.0
30/04:30pm 12.6 6.9 6.9 68 2.8 NNW 26 43 14 23 1012.3 1012.6 0.0
30/04:00pm 12.6 5.8 6.9 68 2.8 NNW 32 52 17 28 1011.7 1012.0 0.0
30/03:56pm 12.6 5.7 6.6 67 2.9 NNW 32 52 17 28 1011.7 1012.0 0.0
30/03:30pm 12.6 7.4 7.3 70 2.6 NNW 24 43 13 23 1012.0 1012.3 0.0
30/03:00pm 13.1 7.0 6.5 64 3.2 NNW 28 48 15 26 1011.8 1012.1 0.0
30/02:30pm 13.5 7.4 6.4 62 3.5 NNW 28 56 15 30 1011.3 1011.5 0.0
30/02:00pm 13.8 7.2 6.2 60 3.7 NNW 30 57 16 31 1011.7 1012.0 0.0
30/01:34pm 14.2 7.9 5.8 57 4.1 NNW 28 50 15 27 1012.5 1012.8 0.0
30/01:30pm 14.2 8.4 6.1 58 4.0 NNW 26 43 14 23 1012.7 1013.0 0.0
30/01:00pm 13.9 7.5 5.3 56 4.1 NNW 28 54 15 29 1013.4 1013.6 0.0
30/12:30pm 14.8 8.1 5.6 54 4.5 NNW 30 56 16 30 1013.5 1013.7 0.0
30/12:02pm 15.0 8.8 6.3 56 4.3 NNW 28 59 15 32 1014.1 1014.4 0.0
30/12:00pm 15.0 9.0 5.5 53 4.6 NNW 26 59 14 32 1014.2 1014.5 0.0
30/11:30am 14.9 8.7 6.2 56 4.3 NNW 28 52 15 28 1014.9 1015.2 0.0
30/11:13am 14.5 8.2 5.8 56 4.2 NNW 28 46 15 25 1015.2 1015.5 0.0
30/11:00am 14.3 8.9 6.2 58 4.0 NNW 24 52 13 28 1015.3 1015.6 0.0
30/10:32am 13.1 6.9 6.0 62 3.4 NNW 28 46 15 25 1015.7 1016.0 0.0
30/10:30am 12.6 6.6 5.3 61 3.5 NNW 26 46 14 25 1015.8 1016.1 0.0
30/10:05am 12.0 5.6 5.0 62 3.3 NNW 28 48 15 26 1015.9 1016.2 0.0
30/10:00am 11.9 5.8 4.9 62 3.3 NNW 26 43 14 23 1015.9 1016.2 0.0
30/09:30am 11.5 5.7 4.5 62 3.2 NNW 24 39 13 21 1016.0 1016.3 0.0
30/09:00am 11.2 5.7 4.2 62 3.2 NNW 22 39 12 21 1016.0 1016.3 0.0
30/08:30am 11.0 5.5 4.2 63 3.1 NNW 22 37 12 20 1016.4 1016.7 0.0
30/08:00am 11.1 6.0 4.1 62 3.2 NNW 20 35 11 19 1016.5 1016.8 0.0
30/07:30am 10.5 5.4 4.2 65 2.9 NNW 20 35 11 19 1016.6 1016.9 0.0
30/07:00am 11.0 5.6 4.5 64 3.0 NNW 22 39 12 21 1016.7 1017.0 0.0
30/06:30am 10.7 5.9 4.6 66 2.8 NNW 19 30 10 16 1016.7 1017.0 0.0
30/06:00am 10.6 6.2 4.9 68 2.6 NNW 17 32 9 17 1016.8 1017.1 0.0
30/05:30am 10.9 6.0 5.0 67 2.7 NNW 20 33 11 18 1016.8 1017.1 0.0
30/05:00am 11.1 6.7 5.0 66 2.8 NNW 17 28 9 15 1017.0 1017.3 0.0
30/04:30am 10.1 6.6 5.3 72 2.2 NNW 13 20 7 11 1017.3 1017.6 0.0
30/04:00am 10.4 6.5 5.4 71 2.3 NNW 15 26 8 14 1017.7 1018.0 0.0
30/03:30am 9.8 6.4 6.0 77 1.8 N 13 19 7 10 1017.9 1018.2 0.0
30/03:00am 9.9 6.5 6.1 77 1.8 NNW 13 20 7 11 1018.4 1018.8 0.0
30/02:30am 9.5 6.1 5.9 78 1.7 NNW 13 17 7 9 1018.7 1019.1 0.0
30/02:00am 9.3 5.9 5.7 78 1.7 NNW 13 19 7 10 1018.9 1019.3 0.0
30/01:30am 9.0 5.6 5.7 80 1.5 NNW 13 19 7 10 1019.3 1019.6 0.0
30/01:00am 9.5 6.2 6.4 81 1.5 NNW 13 20 7 11 1019.6 1019.9 0.0
30/12:30am 9.7 6.5 6.8 82 1.4 NNW 13 22 7 12 1019.9 1020.2 0.0
30/12:00am 9.8 6.7 7.1 83 1.3 NNW 13 24 7 13 1020.0 1020.3 0.0
 
Date/Time
CST
Temp
°C
App
Temp
°C
Dew
Point
°C
Rel
Hum
%
Delta-T
°C
Wind Press
QNH
hPa
Press
MSL
hPa
Rain since
9am
mm
Dir  Spd
km/h
Gust
km/h
Spd
kts
Gust
kts
29/11:30pm 10.2 6.3 7.3 82 1.4 NNW 17 24 9 13 1020.4 1020.7 0.0
29/11:00pm 10.1 6.7 7.5 84 1.3 NNW 15 20 8 11 1020.5 1020.8 0.0
29/10:30pm 10.3 6.9 7.5 83 1.4 NNW 15 22 8 12 1020.8 1021.2 0.0
29/10:00pm 10.0 7.0 7.6 85 1.2 NNW 13 22 7 12 1020.7 1021.0 0.0
29/09:30pm 10.1 6.7 7.5 84 1.3 NNW 15 20 8 11 1021.0 1021.4 0.0
29/09:00pm 10.1 7.1 7.9 86 1.1 NNW 13 19 7 10 1021.0 1021.4 0.0
29/08:30pm 9.8 7.2 7.9 88 0.9 NNW 11 17 6 9 1021.1 1021.5 0.0
29/08:00pm 9.6 6.7 8.0 90 0.8 N 13 19 7 10 1021.0 1021.4 0.0
29/07:30pm 9.5 6.9 7.6 88 0.9 NNW 11 17 6 9 1021.0 1021.4 0.0
29/07:00pm 9.6 7.0 7.9 89 0.8 NNW 11 17 6 9 1021.1 1021.5 0.0
29/06:30pm 9.0 6.7 7.5 90 0.7 N 9 13 5 7 1020.7 1021.0 0.0
29/06:00pm 9.3 7.0 7.6 89 0.8 N 9 11 5 6 1020.7 1021.0 0.0
29/05:30pm 10.0 7.7 7.6 85 1.2 NW 9 13 5 7 1020.8 1021.2 0.0
29/05:00pm 10.6 8.0 7.7 82 1.4 NW 11 15 6 8 1020.9 1021.3 0.0
29/04:30pm 11.5 9.0 8.0 79 1.7 NW 11 19 6 10 1020.9 1021.3 0.0
29/04:00pm 11.2 8.2 7.7 79 1.7 NW 13 19 7 10 1020.9 1021.3 0.0
29/03:30pm 11.9 9.0 8.0 77 1.9 WNW 13 20 7 11 1021.1 1021.5 0.0
29/03:00pm 12.0 9.1 8.1 77 1.9 NW 13 24 7 13 1020.9 1021.3 0.0
29/02:30pm 11.2 7.4 7.7 79 1.7 WNW 17 22 9 12 1021.4 1021.8 0.0
29/02:00pm 11.0 8.0 7.7 80 1.6 WNW 13 20 7 11 1021.5 1021.9 0.0
29/01:30pm 10.7 6.3 7.4 80 1.6 NW 20 28 11 15 1021.8 1022.2 0.0
29/01:00pm 10.7 6.9 7.6 81 1.5 NW 17 26 9 14 1022.4 1022.7 0.0
29/12:30pm 10.8 7.0 7.5 80 1.6 NW 17 32 9 17 1022.5 1022.8 0.0
29/12:00pm 9.9 6.9 7.5 85 1.2 NW 13 20 7 11 1022.9 1023.2 0.0
29/11:30am 9.9 6.1 7.5 85 1.2 WNW 17 30 9 16 1023.1 1023.5 0.0
29/11:00am 9.2 5.7 7.3 88 0.9 WNW 15 24 8 13 1023.3 1023.7 0.0
29/10:30am 8.9 5.3 8.5 97 0.2 NW 17 26 9 14 1023.5 1023.9 0.0
29/10:00am 8.5 4.5 8.4 99 0.0 NW 19 26 10 14 1023.6 1024.0 0.0
29/09:30am 8.2 4.6 8.2 100 0.0 NW 17 30 9 16 1023.6 1024.0 0.0
29/09:00am 7.8 3.5 7.8 100 0.0 NW 20 32 11 17 1023.6 1024.0 1.8
29/08:30am 7.5 3.7 7.5 100 0.0 NW 17 28 9 15 1023.5 1023.9 1.6
29/08:00am 7.5 3.3 7.5 100 0.0 NW 19 28 10 15 1023.4 1023.8 1.6
29/07:30am 7.3 3.1 7.3 100 0.0 WNW 19 28 10 15 1023.1 1023.5 1.6
29/07:00am 7.3 2.9 7.3 100 0.0 NW 20 32 11 17 1022.8 1023.1 1.6
29/06:30am 7.6 3.2 7.6 100 0.0 WNW 20 35 11 19 1022.6 1022.9 1.6
29/06:00am 7.6 3.4 7.6 100 0.0 NW 19 32 10 17 1022.4 1022.7 1.6
29/05:30am 7.6 4.2 7.6 100 0.0 NW 15 24 8 13 1022.5 1022.8 1.6
29/05:00am 7.8 4.1 7.8 100 0.0 NW 17 26 9 14 1022.4 1022.7 1.6
29/04:30am 8.3 4.7 8.3 100 0.0 WNW 17 24 9 13 1022.6 1022.9 1.4
29/04:00am 8.2 4.2 8.2 100 0.0 WNW 19 28 10 15 1022.7 1023.0 1.2
29/03:30am 8.3 4.3 8.3 100 0.0 WNW 19 32 10 17 1022.7 1023.0 0.4
29/03:00am 8.2 4.2 8.2 100 0.0 WNW 19 30 10 16 1022.7 1023.0 0.2
29/02:30am 8.0 3.7 8.0 100 0.0 WNW 20 28 11 15 1022.8 1023.1 0.0
29/02:00am 8.0 3.7 8.0 100 0.0 NW 20 28 11 15 1023.0 1023.3 0.0
29/01:30am 8.0 3.3 7.9 99 0.0 WNW 22 35 12 19 1023.3 1023.7 0.0
29/01:00am 8.2 3.6 8.1 99 0.0 WNW 22 35 12 19 1023.3 1023.7 0.0
29/12:30am 8.1 3.1 8.0 99 0.0 WNW 24 33 13 18 1023.5 1023.9 0.0
29/12:00am 8.3 4.2 8.0 98 0.1 WNW 19 30 10 16 1023.8 1024.2 0.0
 
Date/Time
CST
Temp
°C
App
Temp
°C
Dew
Point
°C
Rel
Hum
%
Delta-T
°C
Wind Press
QNH
hPa
Press
MSL
hPa
Rain since
9am
mm
Dir  Spd
km/h
Gust
km/h
Spd
kts
Gust
kts
28/11:30pm 8.4 4.1 7.8 96 0.3 WNW 20 30 11 16 1024.3 1024.7 0.0
28/11:00pm 8.3 4.1 7.5 95 0.4 NW 19 28 10 15 1024.1 1024.5 0.0
28/10:30pm 8.3 4.0 7.2 93 0.5 NW 19 30 10 16 1024.0 1024.4 0.0
28/10:00pm 8.2 4.3 7.1 93 0.5 NW 17 30 9 16 1024.1 1024.5 0.0
28/09:30pm 8.4 3.9 7.0 91 0.7 NW 20 28 11 15 1024.3 1024.7 0.0
28/09:00pm 8.6 4.2 6.7 88 0.9 NW 19 30 10 16 1024.5 1024.9 0.0
28/08:30pm 8.6 4.2 6.4 86 1.0 WNW 19 30 10 16 1024.9 1025.2 0.0
28/08:00pm 8.8 4.5 6.8 87 1.0 WNW 19 30 10 16 1025.2 1025.5 0.0
28/07:30pm 8.8 5.0 7.4 91 0.7 WNW 17 28 9 15 1025.1 1025.4 0.0
28/07:00pm 8.9 4.9 8.1 95 0.4 WNW 19 32 10 17 1025.1 1025.4 0.0
28/06:30pm 9.1 5.5 8.2 94 0.4 WNW 17 24 9 13 1025.0 1025.3 0.0
28/06:00pm 9.2 5.2 8.3 94 0.4 WNW 19 28 10 15 1025.0 1025.3 0.0
28/05:30pm 9.2 5.1 8.0 92 0.6 NW 19 26 10 14 1025.0 1025.3 0.0
28/05:00pm 9.4 5.3 7.8 90 0.8 NW 19 28 10 15 1025.0 1025.3 0.0
28/04:30pm 9.7 5.6 7.8 88 0.9 NW 19 26 10 14 1024.9 1025.2 0.0
28/04:00pm 10.0 5.8 7.6 85 1.2 WNW 19 30 10 16 1025.0 1025.3 0.0
28/03:30pm 10.1 6.8 8.0 87 1.0 NW 15 24 8 13 1025.1 1025.4 0.0
28/03:00pm 10.0 6.4 8.3 89 0.8 NW 17 28 9 15 1025.1 1025.4 0.0
28/02:30pm 9.8 5.5 7.7 87 1.0 NW 20 32 11 17 1025.0 1025.3 0.0
28/02:00pm 9.9 5.3 8.2 89 0.8 NW 22 32 12 17 1025.1 1025.4 0.0
28/01:30pm 10.1 6.0 7.7 85 1.2 WNW 19 30 10 16 1025.4 1025.8 0.0
28/01:00pm 10.0 6.2 7.6 85 1.2 WNW 17 32 9 17 1025.6 1026.0 0.0

Other Formats:

Comma delimited format used in spreadsheet applications
http://www.bom.gov.au/fwo/IDS60801/IDS60801.94683.axf

JavaScript Object Notation format (JSON) in row-major order
http://www.bom.gov.au/fwo/IDS60801/IDS60801.94683.json